Flight Track Log - Related Links

Times and Time Zones

All times are in EDT time to prevent confusion due to time zone crossing. See the SWA1802 flight status page for this flight to view local times or setup timezone preferences in your user account.


Time Position Orientation Groundspeed Altitude Reporting Facility
EDT Latitude Longitude Course Direction KTS MPH feet Rate Location/Type
Tue 06:45:22 PM 41.8000 -87.7333 294° West 175 201 1,500  Level Chicago TRACON
Tue 06:46:22 PM 41.8167 -87.7833 294° West 203 234 2,800 776 Climbing Chicago TRACON
Tue 06:47:18 PM 41.8036 -87.8406 253° West 217 250 3,000 101 Climbing Chicago Center
Tue 06:48:21 PM 41.7850 -87.9161 252° West 217 250 3,000 480 Level Chicago Center
Tue 06:49:23 PM 41.7578 -88.0117 249° West 224 258 4,000 1,016 Climbing Chicago Center
Tue 06:50:25 PM 41.7581 -88.1053 270° West 254 292 5,100 1,887 Climbing Chicago Center
Tue 06:51:27 PM 41.7994 -88.1833 305° West 264 304 7,900 2,758 Climbing Chicago Center
Tue 06:52:29 PM 41.8419 -88.2644 305° West 281 323 10,800 2,226 Climbing Chicago Center
Tue 06:53:31 PM 41.8378 -88.3644 267° West 281 323 12,500 1,500 Climbing Chicago Center
Tue 06:54:33 PM 41.8053 -88.5092 253° West 340 391 13,900 1,935 Climbing Chicago Center
Tue 06:55:35 PM 41.7761 -88.6422 254° West 371 427 16,500 2,323 Climbing Chicago Center
Tue 06:56:37 PM 41.7472 -88.7739 254° West 373 429 18,700 1,872 Climbing Chicago Center
Tue 06:57:40 PM 41.7161 -88.9125 253° West 388 447 20,400 1,872 Climbing Chicago Center
Tue 06:58:42 PM 41.6783 -89.0844 254° West 403 464 22,600 1,790 Climbing Chicago Center
Tue 06:59:44 PM 41.6458 -89.2306 253° West 412 474 24,100 1,452 Climbing Chicago Center
Tue 07:00:46 PM 41.6128 -89.3825 254° West 426 490 25,600 1,355 Climbing Chicago Center
Tue 07:01:48 PM 41.5794 -89.5342 254° West 429 494 26,900 1,210 Climbing Chicago Center
Tue 07:02:50 PM 41.5442 -89.7044 255° West 441 507 28,100 1,355 Climbing Chicago Center
Tue 07:03:52 PM 41.5244 -89.8658 261° West 442 509 29,700 1,694 Climbing Chicago Center
Tue 07:04:54 PM 41.5036 -90.0222 260° West 435 501 31,600 1,790 Climbing Chicago Center
Tue 07:05:56 PM 41.4836 -90.1708 260° West 416 479 33,400 1,742 Climbing Chicago Center
Tue 07:06:58 PM 41.4614 -90.3428 260° West 398 458 35,200 1,258 Climbing Chicago Center
Tue 07:08:00 PM 41.4419 -90.4831 260° West 389 448 36,000 384 Climbing Chicago Center
Tue 07:09:03 PM 41.4231 -90.6219 260° West 384 442 36,000  Level Chicago Center
Tue 07:10:05 PM 41.4017 -90.7678 259° West 397 457 36,000  Level Chicago Center
Tue 07:11:07 PM 41.3819 -90.9078 259° West 390 449 36,000  Level Chicago Center
Tue 07:12:09 PM 41.3578 -91.0794 259° West 392 451 36,000  Level Chicago Center
Tue 07:13:11 PM 41.3364 -91.2233 259° West 397 457 36,000  Level Chicago Center
Tue 07:14:13 PM 41.3156 -91.3650 259° West 395 455 36,000  Level Chicago Center
Tue 07:15:15 PM 41.2947 -91.5100 259° West 400 460 36,000  Level Chicago Center
Tue 07:16:17 PM 41.2736 -91.6531 259° West 397 457 36,000  Level Chicago Center
Tue 07:17:19 PM 41.2483 -91.8272 259° West 402 463 36,000  Level Chicago Center
Tue 07:18:21 PM 41.2283 -91.9544 258° West 404 465 36,000  Level Chicago Center
Tue 07:19:24 PM 41.2019 -92.1292 259° West 405 466 36,000  Level Chicago Center
Tue 07:20:26 PM 41.1800 -92.2750 259° West 407 468 36,000  Level Chicago Center
Tue 07:21:28 PM 41.1572 -92.4189 258° West 406 467 36,000  Level Chicago Center
Tue 07:22:30 PM 41.1353 -92.5628 259° West 403 464 36,000  Level Chicago Center
Tue 07:23:32 PM 41.1122 -92.7067 258° West 402 463 36,000  Level Chicago Center
Tue 07:24:34 PM 41.0836 -92.8825 258° West 411 473 36,000  Level Chicago Center
Tue 07:25:36 PM 41.0614 -93.0283 259° West 410 472 36,000  Level Chicago Center
Tue 07:26:38 PM 41.0369 -93.1758 258° West 413 475 36,000  Level Chicago Center
Tue 07:27:40 PM 41.0122 -93.3239 258° West 417 480 36,000  Level Chicago Center
Tue 07:28:42 PM 40.9839 -93.5003 258° West 415 478 36,000  Level Chicago Center
Tue 07:29:45 PM 40.9592 -93.6489 258° West 417 480 36,000  Level Chicago Center
Tue 07:30:52 PM 40.9356 -93.7944 258° West 414 476 36,000  Level Minneapolis Center
Tue 07:31:54 PM 40.9056 -93.9700 257° West 414 476 36,000  Level Minneapolis Center
Tue 07:32:56 PM 40.8817 -94.1158 258° West 414 476 36,000  Level Minneapolis Center
Tue 07:33:58 PM 40.8556 -94.2628 257° West 414 476 36,000  Level Minneapolis Center
Tue 07:35:00 PM 40.8286 -94.4100 256° West 416 479 36,000  Level Minneapolis Center
Tue 07:36:02 PM 40.7989 -94.5719 256° West 420 483 36,000  Level Minneapolis Center
Tue 07:37:04 PM 40.7728 -94.7225 257° West 421 484 36,000  Level Minneapolis Center
Tue 07:38:06 PM 40.7442 -94.8750 256° West 424 488 36,000  Level Minneapolis Center
Tue 07:39:07 PM 40.7131 -95.0564 257° West 423 487 36,000  Level Minneapolis Center
Tue 07:40:09 PM 40.6850 -95.2103 257° West 427 491 36,000  Level Minneapolis Center
Tue 07:41:11 PM 40.6572 -95.3617 256° West 425 489 36,000  Level Minneapolis Center
Tue 07:42:13 PM 40.6297 -95.5131 257° West 423 487 36,000  Level Minneapolis Center
Tue 07:43:15 PM 40.6025 -95.6633 257° West 422 486 36,000  Level Minneapolis Center
Tue 07:44:17 PM 40.5739 -95.8150 256° West 424 488 36,000  Level Minneapolis Center
Tue 07:45:19 PM 40.5456 -95.9631 256° West 421 484 36,000  Level Minneapolis Center
Tue 07:46:21 PM 40.5119 -96.1444 256° West 421 484 36,000  Level Minneapolis Center
Tue 07:47:23 PM 40.4828 -96.2936 256° West 420 483 36,000  Level Minneapolis Center
Tue 07:48:25 PM 40.4542 -96.4419 256° West 419 482 36,000  Level Minneapolis Center
Tue 07:49:27 PM 40.4256 -96.5914 256° West 419 482 36,000  Level Minneapolis Center
Tue 07:50:29 PM 40.3964 -96.7392 256° West 418 481 36,000  Level Minneapolis Center
Tue 07:51:31 PM 40.3678 -96.8869 256° West 417 480 36,000  Level Minneapolis Center
Tue 07:52:33 PM 40.3381 -97.0333 255° West 417 480 36,000  Level Minneapolis Center
Tue 07:53:35 PM 40.3089 -97.1800 255° West 415 478 36,000  Level Minneapolis Center
Tue 07:54:37 PM 40.2733 -97.3569 255° West 413 475 36,000  Level Minneapolis Center
Tue 07:55:38 PM 40.2436 -97.5003 255° West 410 472 36,000  Level Minneapolis Center
Tue 07:56:40 PM 40.2142 -97.6458 255° West 411 473 36,000  Level Minneapolis Center
Tue 07:57:42 PM 40.1850 -97.7903 255° West 411 473 36,000  Level Minneapolis Center
Tue 07:58:44 PM 40.1550 -97.9336 255° West 409 471 36,000  Level Minneapolis Center
Tue 07:59:46 PM 40.1247 -98.0789 255° West 411 473 36,000  Level Minneapolis Center
Tue 08:00:48 PM 40.0939 -98.2256 255° West 416 479 36,000  Level Minneapolis Center
Tue 08:01:50 PM 40.0628 -98.3711 254° West 416 479 36,000  Level Minneapolis Center
Tue 08:02:51 PM 40.0244 -98.5475 254° West 418 481 36,000  Level Minneapolis Center
Tue 08:03:53 PM 39.9936 -98.6947 255° West 419 482 36,000  Level Minneapolis Center
Tue 08:04:55 PM 39.9614 -98.8411 254° West 419 482 36,000  Level Minneapolis Center
Tue 08:05:57 PM 39.9300 -98.9867 254° West 417 480 36,000  Level Minneapolis Center
Tue 08:06:59 PM 39.8983 -99.1308 254° West 415 478 36,000  Level Minneapolis Center
Tue 08:08:00 PM 39.8669 -99.2758 254° West 415 478 36,000  Level Minneapolis Center
Tue 08:09:02 PM 39.8344 -99.4189 254° West 413 475 36,000  Level Minneapolis Center
Tue 08:10:04 PM 39.8028 -99.5600 254° West 409 471 36,000  Level Minneapolis Center
Tue 08:11:06 PM 39.7653 -99.7267 254° West 402 463 36,000  Level Minneapolis Center
Tue 08:12:08 PM 39.7339 -99.8669 254° West 402 463 36,000  Level Minneapolis Center
Tue 08:13:19 PM 39.6958 -100.0303 253° West 408 470 36,000  Level Denver Center
Tue 08:14:21 PM 39.6636 -100.1694 253° West 416 479 36,000  Level Denver Center
Tue 08:15:23 PM 39.6261 -100.3333 254° West 423 487 36,000  Level Denver Center
Tue 08:16:25 PM 39.5928 -100.4736 253° West 423 487 36,000  Level Denver Center
Tue 08:17:27 PM 39.5553 -100.6364 253° West 423 487 36,000  Level Denver Center
Tue 08:18:29 PM 39.5228 -100.7742 253° West 419 482 36,000  Level Denver Center
Tue 08:19:31 PM 39.4847 -100.9336 253° West 416 479 36,000  Level Denver Center
Tue 08:20:32 PM 39.4517 -101.0719 253° West 420 483 36,000  Level Denver Center
Tue 08:21:34 PM 39.4128 -101.2322 253° West 417 480 36,000  Level Denver Center
Tue 08:22:36 PM 39.3800 -101.3689 253° West 415 478 36,000  Level Denver Center
Tue 08:23:38 PM 39.3472 -101.5047 253° West 415 478 36,000  Level Denver Center
Tue 08:24:40 PM 39.3081 -101.6631 252° West 415 478 36,000  Level Denver Center
Tue 08:25:42 PM 39.2725 -101.8019 252° West 417 480 36,000  Level Denver Center
Tue 08:26:44 PM 39.2339 -101.9611 253° West 417 480 36,000  Level Denver Center
Tue 08:27:45 PM 39.2006 -102.0953 252° West 413 475 36,000  Level Denver Center
Tue 08:28:47 PM 39.1608 -102.2514 252° West 412 474 36,000  Level Denver Center
Tue 08:29:49 PM 39.1328 -102.3622 252° West 410 472 36,000  Level Denver Center
Tue 08:30:51 PM 39.0944 -102.5139 252° West 401 461 36,000  Level Denver Center
Tue 08:31:53 PM 39.0564 -102.6661 252° West 400 460 36,000  Level Denver Center
Tue 08:32:54 PM 39.0217 -102.7964 251° West 401 461 36,000  Level Denver Center
Tue 08:33:56 PM 38.9875 -102.9311 252° West 396 456 36,000  Level Denver Center
Tue 08:34:58 PM 38.9528 -103.0661 252° West 398 458 36,000  Level Denver Center
Tue 08:36:00 PM 38.9111 -103.2267 252° West 395 455 36,000  Level Denver Center
Tue 08:37:01 PM 38.8753 -103.3594 251° West 393 452 36,000  Level Denver Center
Tue 08:38:03 PM 38.8400 -103.4933 251° West 392 451 36,000  Level Denver Center
Tue 08:39:05 PM 38.8061 -103.6203 251° West 394 453 36,000  Level Denver Center
Tue 08:40:06 PM 38.7783 -103.7267 252° West 395 455 36,000  Level Denver Center
Tue 08:41:08 PM 38.7328 -103.8950 251° West 394 453 36,000  Level Denver Center
Tue 08:42:22 PM 38.6922 -104.0453 251° West 399 459 36,000  Level Denver Center
Tue 08:43:24 PM 38.6536 -104.1869 251° West 402 463 36,000  Level Denver Center
Tue 08:44:26 PM 38.6103 -104.3478 251° West 400 460 36,000  Level Denver Center
Tue 08:45:27 PM 38.5725 -104.4831 250° West 403 464 36,000  Level Denver Center
Tue 08:46:29 PM 38.5361 -104.6183 251° West 402 463 36,000  Level Denver Center
Tue 08:47:31 PM 38.4981 -104.7544 250° West 407 468 36,000  Level Denver Center
Tue 08:48:32 PM 38.4597 -104.8925 251° West 411 473 36,000  Level Denver Center
Tue 08:49:34 PM 38.4203 -105.0317 250° West 416 479 36,000  Level Denver Center
Tue 08:50:36 PM 38.3814 -105.1683 250° West 412 474 36,000  Level Denver Center
Tue 08:51:37 PM 38.3378 -105.3236 250° West 411 473 36,000  Level Denver Center
Tue 08:52:39 PM 38.3006 -105.4539 250° West 410 472 36,000  Level Denver Center
Tue 08:53:53 PM 38.2569 -105.6067 250° West 411 473 36,000  Level Denver Center
Tue 08:54:55 PM 38.2125 -105.7583 250° West 412 474 36,000  Level Denver Center
Tue 08:55:56 PM 38.1683 -105.9103 250° West 411 473 36,000  Level Denver Center
Tue 08:56:58 PM 38.1317 -106.0392 250° West 407 468 36,000  Level Denver Center
Tue 08:57:59 PM 38.0911 -106.1756 249° West 410 472 36,000  Level Denver Center
Tue 08:59:01 PM 38.0478 -106.3203 249° West 411 473 36,000  Level Denver Center
Tue 09:00:03 PM 38.0028 -106.4717 249° West 410 472 36,000  Level Denver Center
Tue 09:01:04 PM 37.9639 -106.6072 250° West 409 471 36,000  Level Denver Center
Tue 09:02:06 PM 37.9250 -106.7344 249° West 404 465 36,000  Level Denver Center
Tue 09:03:07 PM 37.8806 -106.8828 249° West 403 464 36,000  Level Denver Center
Tue 09:04:09 PM 37.8422 -107.0097 249° West 403 464 36,000  Level Denver Center
Tue 09:05:11 PM 37.8031 -107.1372 249° West 403 464 36,000  Level Denver Center
Tue 09:06:12 PM 37.7583 -107.2858 249° West 405 466 36,000  Level Denver Center
Tue 09:07:14 PM 37.7189 -107.4142 249° West 408 470 36,000  Level Denver Center
Tue 09:08:16 PM 37.6731 -107.5642 249° West 409 471 36,000  Level Denver Center
Tue 09:09:29 PM 37.6339 -107.6933 249° West 411 473 36,000  Level Denver Center
Tue 09:10:31 PM 37.5803 -107.8625 248° West 409 471 36,000  Level Denver Center
Tue 09:11:33 PM 37.5406 -107.9889 248° West 405 466 36,000  Level Denver Center
Tue 09:12:35 PM 37.4942 -108.1381 249° West 408 470 36,000  Level Denver Center
Tue 09:13:36 PM 37.4547 -108.2642 249° West 405 466 36,000  Level Denver Center
Tue 09:14:38 PM 37.4072 -108.4086 248° West 403 464 36,000  Level Denver Center
Tue 09:15:40 PM 37.3672 -108.5344 248° West 405 466 36,000  Level Denver Center
Tue 09:16:54 PM 37.3281 -108.6567 248° West 399 459 36,000  Level Denver Center
Tue 09:17:56 PM 37.2758 -108.8236 249° West 402 463 36,000  Level Denver Center
Tue 09:18:57 PM 37.2417 -108.9258 247° West 400 460 36,000  Level Denver Center
Tue 09:19:59 PM 37.1881 -109.0919 248° West 403 464 36,000  Level Denver Center
Tue 09:21:01 PM 37.1417 -109.2361 248° West 402 463 36,000  Level Denver Center
Tue 09:22:03 PM 37.1003 -109.3589 247° West 401 461 36,000  Level Denver Center
Tue 09:23:05 PM 37.0592 -109.4847 248° West 407 468 36,000  Level Denver Center
Tue 09:24:06 PM 37.0108 -109.6317 248° West 410 472 36,000  Level Denver Center
Tue 09:25:08 PM 36.9692 -109.7583 248° West 412 474 36,000  Level Denver Center
Tue 09:26:10 PM 36.9186 -109.9058 247° West 414 476 36,000  Level Denver Center
Tue 09:27:12 PM 36.8764 -110.0331 247° West 416 479 36,000  Level Denver Center
Tue 09:28:14 PM 36.8267 -110.1806 247° West 416 479 36,000  Level Denver Center
Tue 09:29:16 PM 36.7822 -110.3125 247° West 415 478 36,000  Level Denver Center
Tue 09:30:17 PM 36.7372 -110.4450 247° West 414 476 36,000  Level Denver Center
Tue 09:31:19 PM 36.6936 -110.5753 247° West 409 471 36,000  Level Denver Center
Tue 09:32:21 PM 36.6483 -110.7047 246° West 407 468 36,000  Level Denver Center
Tue 09:33:23 PM 36.6056 -110.8331 247° West 403 464 36,000  Level Denver Center
Tue 09:34:25 PM 36.5508 -110.9908 247° West 410 472 36,000  Level Denver Center
Tue 09:35:27 PM 36.5031 -111.1236 246° West 416 479 36,000  Level Denver Center
Tue 09:36:29 PM 36.4594 -111.2508 247° West 407 468 36,000  Level Denver Center
Tue 09:37:31 PM 36.4133 -111.3797 246° West 406 467 36,000  Level Denver Center
Tue 09:38:33 PM 36.3669 -111.5061 246° West 404 465 36,000  Level Denver Center
Tue 09:39:35 PM 36.3208 -111.6308 245° Southwest 401 461 36,000  Level Denver Center
Tue 09:40:29 PM 36.2728 -111.7578 245° Southwest 401 461 36,000  Level Los Angeles Center
Tue 09:41:31 PM 36.2281 -111.8806 246° West 393 452 36,000  Level Los Angeles Center
Tue 09:42:32 PM 36.1853 -111.9919 245° Southwest 395 455 36,000  Level Los Angeles Center
Tue 09:43:34 PM 36.1289 -112.1417 245° Southwest 401 461 36,000  Level Los Angeles Center
Tue 09:44:36 PM 36.0828 -112.2672 246° West 402 463 36,000  Level Los Angeles Center
Tue 09:45:37 PM 36.0303 -112.4053 245° Southwest 400 460 36,000  Level Los Angeles Center
Tue 09:46:39 PM 35.9831 -112.5292 245° Southwest 398 458 36,000  Level Los Angeles Center
Tue 09:47:41 PM 35.9425 -112.6356 245° Southwest 399 459 36,000  Level Los Angeles Center
Tue 09:48:42 PM 35.8867 -112.7836 245° Southwest 399 459 36,000  Level Los Angeles Center
Tue 09:49:44 PM 35.8383 -112.9064 244° Southwest 402 463 36,000  Level Los Angeles Center
Tue 09:50:46 PM 35.7911 -113.0294 245° Southwest 402 463 36,000  Level Los Angeles Center
Tue 09:51:47 PM 35.7425 -113.1536 244° Southwest 405 466 36,000 -146 Level Los Angeles Center
Tue 09:52:49 PM 35.6947 -113.2781 245° Southwest 407 468 35,700 -585 Descending Los Angeles Center
Tue 09:53:50 PM 35.6461 -113.4025 244° Southwest 408 470 34,800 -829 Descending Los Angeles Center
Tue 09:54:52 PM 35.5875 -113.5533 244° Southwest 412 474 34,000 -387 Descending Los Angeles Center
Tue 09:55:54 PM 35.5372 -113.6783 244° Southwest 413 475 34,000  Level Los Angeles Center
Tue 09:56:55 PM 35.4878 -113.8036 244° Southwest 412 474 34,000  Level Los Angeles Center
Tue 09:57:57 PM 35.4336 -113.9389 244° Southwest 413 475 34,000  Level Los Angeles Center
Tue 09:58:59 PM 35.3825 -114.0664 244° Southwest 416 479 34,000  Level Los Angeles Center
Tue 10:00:00 PM 35.3317 -114.1917 244° Southwest 411 473 34,000  Level Los Angeles Center
Tue 10:01:02 PM 35.2817 -114.3150 244° Southwest 405 466 34,000 -98 Level Los Angeles Center
Tue 10:02:03 PM 35.2311 -114.4428 244° Southwest 413 475 33,800 -585 Descending Los Angeles Center
Tue 10:03:05 PM 35.1803 -114.5692 244° Southwest 413 475 32,800 -1,016 Descending Los Angeles Center
Tue 10:04:07 PM 35.1167 -114.7219 243° Southwest 421 484 31,700 -1,073 Descending Los Angeles Center
Tue 10:05:08 PM 35.0650 -114.8500 244° Southwest 420 483 30,600 -1,024 Descending Los Angeles Center
Tue 10:06:10 PM 35.0139 -114.9756 244° Southwest 415 478 29,600 -927 Descending Los Angeles Center
Tue 10:07:11 PM 34.9622 -115.1031 244° Southwest 415 478 28,700 -780 Descending Los Angeles Center
Tue 10:08:13 PM 34.9097 -115.2292 243° Southwest 416 479 28,000 -339 Descending Los Angeles Center
Tue 10:09:15 PM 34.8569 -115.3550 243° Southwest 416 479 28,000  Level Los Angeles Center
Tue 10:10:28 PM 34.8047 -115.4803 243° Southwest 415 478 28,000  Level Los Angeles Center
Tue 10:11:30 PM 34.7408 -115.6322 243° Southwest 413 475 28,000 -194 Level Los Angeles Center
Tue 10:12:32 PM 34.6894 -115.7564 243° Southwest 411 473 27,600 -677 Descending Los Angeles Center
Tue 10:13:34 PM 34.6350 -115.8844 243° Southwest 416 479 26,600 -780 Descending Los Angeles Center
Tue 10:14:35 PM 34.5728 -116.0300 243° Southwest 414 476 26,000 -293 Descending Los Angeles Center
Tue 10:15:37 PM 34.5181 -116.1536 242° Southwest 415 478 26,000  Level Los Angeles Center
Tue 10:16:39 PM 34.4697 -116.2733 244° Southwest 406 467 26,000  Level Los Angeles Center
Tue 10:17:40 PM 34.4186 -116.3928 243° Southwest 401 461 26,000  Level Los Angeles Center
Tue 10:18:42 PM 34.3656 -116.5139 242° Southwest 404 465 26,000  Level Los Angeles Center
Tue 10:19:44 PM 34.3147 -116.6317 242° Southwest 399 459 26,000 -293 Level Los Angeles Center
Tue 10:20:45 PM 34.2639 -116.7517 243° Southwest 399 459 25,400 -1,415 Descending Los Angeles Center
Tue 10:21:47 PM 34.2125 -116.8681 242° Southwest 392 451 23,100 -2,855 Descending Los Angeles Center
Tue 10:22:49 PM 34.1558 -117.0036 243° Southwest 381 438 19,500 -2,000 Descending Los Angeles Center
Tue 10:23:50 PM 34.1222 -117.1289 252° West 388 447 19,000 -1,220 Descending Los Angeles Center
Tue 10:24:52 PM 34.0878 -117.2469 251° West 388 447 17,000 -1,854 Descending Los Angeles Center
Tue 10:25:53 PM 34.0544 -117.3625 251° West 373 429 15,200 -1,850 Descending Los Angeles Center
Tue 10:26:52 PM 34.0333 -117.4833 258° West 326 375 13,300 -2,118 Descending Southern California TRACON
Tue 10:27:52 PM 34.0167 -117.5833 259° West 397 457 11,000 -1,700 Descending Southern California TRACON
Tue 10:28:52 PM 34.0000 -117.7000 260° West 299 344 9,900 -1,200 Descending Southern California TRACON
Tue 10:29:52 PM 34.0000 -117.8000 270° West 281 323 8,600 -1,200 Descending Southern California TRACON
Tue 10:30:52 PM 34.0000 -117.8833 270° West 283 326 7,500 -1,150 Descending Southern California TRACON
Tue 10:31:52 PM 34.0000 -117.9833 270° West 268 308 6,300 -1,050 Descending Southern California TRACON
Tue 10:32:52 PM 33.9833 -118.0667 256° West 261 300 5,400 -1,100 Descending Southern California TRACON
Tue 10:33:52 PM 33.9833 -118.1500 270° West 249 287 4,100 -1,103 Descending Southern California TRACON
Tue 10:34:19 PM 33.9758 -118.1697 245° Southwest 257 296 3,800 -944 Descending Los Angeles Center
Tue 10:35:21 PM 33.9686 -118.2436 263° West 235 270 2,700 -1,113 Descending Los Angeles Center
Tue 10:36:23 PM 33.9619 -118.3164 264° West 203 234 1,500 -919 Descending Los Angeles Center
Tue 10:37:25 PM 33.9569 -118.3647 263° West 170 196 800 -634 Descending Los Angeles Center
Tue 10:38:26 PM 33.9508 -118.4144 262° West 154 177 200 -590 Descending Los Angeles Center
Tue 10:40:00 PM 33.9425 -118.4081 259° West  Level Estimated

Login

Don't have an account? Register now (free) for customized features, flight alerts, and more!